Time;durP1;ratioP1;P1;durP2;ratioP2;P2;SDS_P1;SDS_P2;PMS_P1;PMS_P2;Temp;Humidity;BMP_temperature;BMP_pressure;BME280_temperature;BME280_humidity;BME280_pressure;Samples;Min_cycle;Max_cycle;Signal;HPM_P1;HPM_P2
2023/11/23 00:02:05;;;;;;;;;;;;;;;;;;5012748;28;19948;-56
2023/11/23 00:04:31;;;;;;;;;;;;;;;;;;5013037;28;19916;-55
2023/11/23 00:06:57;;;;;;;;;;;;;;;;;;5013269;28;20039;-57
2023/11/23 00:09:25;;;;;;;;;;;;;;;;;;4978661;28;20390;-54
2023/11/23 00:11:51;;;;;;;;;;;;;;;;;;5012658;28;19916;-57
2023/11/23 00:14:17;;;;;;;;;;;;;;;;;;5001756;28;19956;-56
2023/11/23 00:16:43;;;;;;;;;;;;;;;;;;5011757;28;19909;-59
2023/11/23 00:19:09;;;;;;;;;;;;;;;;;;5012010;28;20359;-57
2023/11/23 00:21:35;;;;;;;;;;;;;;;;;;5012845;28;20395;-54
2023/11/23 00:24:01;;;;;;;;;;;;;;;;;;5012732;28;20347;-58
2023/11/23 00:26:27;;;;;;;;;;;;;;;;;;4994799;28;20003;-58
2023/11/23 00:28:58;;;;;;;;;;;;;;;;;;4995119;28;19909;-59
2023/11/23 00:31:24;;;;;;;;;;;;;;;;;;4978523;28;19909;-58
2023/11/23 00:33:50;;;;;;;;;;;;;;;;;;5012604;28;20379;-55
2023/11/23 00:36:16;;;;;;;;;;;;;;;;;;5003877;28;19914;-59
2023/11/23 00:38:42;;;;;;;;;;;;;;;;;;5012326;28;19910;-56
2023/11/23 00:41:08;;;;;;;;;;;;;;;;;;5008421;28;19984;-57
2023/11/23 00:43:34;;;;;;;;;;;;;;;;;;4989322;28;19924;-56
2023/11/23 00:46:02;;;;;;;;;;;;;;;;;;4997672;28;19913;-56
2023/11/23 00:48:28;;;;;;;;;;;;;;;;;;4995847;28;19913;-57
2023/11/23 00:50:55;;;;;;;;;;;;;;;;;;5012225;28;19916;-59
2023/11/23 00:53:24;;;;;;;;;;;;;;;;;;4994748;28;19919;-58
2023/11/23 00:55:50;;;;;;;;;;;;;;;;;;4993999;28;20043;-59
2023/11/23 00:58:16;;;;;;;;;;;;;;;;;;4993964;28;19943;-60
2023/11/23 01:00:43;;;;;;;;;;;;;;;;;;5011872;28;19913;-59
2023/11/23 01:03:09;;;;;;;;;;;;;;;;;;4968672;28;19932;-59
2023/11/23 01:05:36;;;;;;;;;;;;;;;;;;5010159;28;19921;-59
2023/11/23 01:08:02;;;;;;;;;;;;;;;;;;5010680;28;20412;-54
2023/11/23 01:10:28;;;;;;;;;;;;;;;;;;4993570;28;20016;-56
2023/11/23 01:12:54;;;;;;;;;;;;;;;;;;5010989;28;19917;-55
2023/11/23 01:15:20;;;;;;;;;;;;;;;;;;5011137;28;20008;-58
2023/11/23 01:17:46;;;;;;;;;;;;;;;;;;5011370;28;19913;-58
2023/11/23 01:20:13;;;;;;;;;;;;;;;;;;5022375;28;20375;-56
2023/11/23 01:22:39;;;;;;;;;;;;;;;;;;5013961;28;20011;-58
2023/11/23 01:25:08;;;;;;;;;;;;;;;;;;5031617;28;19909;-58
2023/11/23 01:27:34;;;;;;;;;;;;;;;;;;5018287;28;19937;-57
2023/11/23 01:30:00;;;;;;;;;;;;;;;;;;5024594;28;19909;-56
2023/11/23 01:32:26;;;;;;;;;;;;;;;;;;5030918;28;19909;-59
2023/11/23 01:34:52;;;;;;;;;;;;;;;;;;5012615;28;19944;-57
2023/11/23 01:37:18;;;;;;;;;;;;;;;;;;5029255;28;19908;-56
2023/11/23 01:39:44;;;;;;;;;;;;;;;;;;5031688;28;19913;-55
2023/11/23 01:42:10;;;;;;;;;;;;;;;;;;5031504;28;19909;-59
2023/11/23 01:44:36;;;;;;;;;;;;;;;;;;5031606;28;19924;-60
2023/11/23 01:47:04;;;;;;;;;;;;;;;;;;5030256;28;20295;-58
2023/11/23 01:49:30;;;;;;;;;;;;;;;;;;5013771;28;19916;-59
2023/11/23 01:51:56;;;;;;;;;;;;;;;;;;5029539;28;19913;-56
2023/11/23 01:54:23;;;;;;;;;;;;;;;;;;5030120;28;19909;-57
2023/11/23 01:56:49;;;;;;;;;;;;;;;;;;5017833;28;19940;-57
2023/11/23 01:59:15;;;;;;;;;;;;;;;;;;5029777;28;20338;-58
2023/11/23 02:01:41;;;;;;;;;;;;;;;;;;5025218;28;19987;-59
2023/11/23 02:04:07;;;;;;;;;;;;;;;;;;5031395;28;19916;-58
2023/11/23 02:06:33;;;;;;;;;;;;;;;;;;5031378;28;19909;-57
2023/11/23 02:08:59;;;;;;;;;;;;;;;;;;5033211;28;19956;-59
2023/11/23 02:11:25;;;;;;;;;;;;;;;;;;5034955;28;19916;-59
2023/11/23 02:13:51;;;;;;;;;;;;;;;;;;5025105;28;19913;-59
2023/11/23 02:16:17;;;;;;;;;;;;;;;;;;5014116;28;19921;-57
2023/11/23 02:18:43;;;;;;;;;;;;;;;;;;5014683;28;19963;-58
2023/11/23 02:21:09;;;;;;;;;;;;;;;;;;4997486;28;19913;-59
2023/11/23 02:23:35;;;;;;;;;;;;;;;;;;4997541;28;19917;-58
2023/11/23 02:26:01;;;;;;;;;;;;;;;;;;4997093;28;19963;-57
2023/11/23 02:28:27;;;;;;;;;;;;;;;;;;4981373;28;19956;-59
2023/11/23 02:30:53;;;;;;;;;;;;;;;;;;4997243;28;19909;-57
2023/11/23 02:33:19;;;;;;;;;;;;;;;;;;4981101;28;19909;-59
2023/11/23 02:35:45;;;;;;;;;;;;;;;;;;4997425;28;19919;-58
2023/11/23 02:38:12;;;;;;;;;;;;;;;;;;4981009;28;19932;-59
2023/11/23 02:40:38;;;;;;;;;;;;;;;;;;4997098;28;19913;-59
2023/11/23 02:43:04;;;;;;;;;;;;;;;;;;5015204;28;19909;-60
2023/11/23 02:45:30;;;;;;;;;;;;;;;;;;4997123;28;19909;-59
2023/11/23 02:47:56;;;;;;;;;;;;;;;;;;5011003;28;19913;-58
2023/11/23 02:50:22;;;;;;;;;;;;;;;;;;4977732;28;20399;-60
2023/11/23 02:52:48;;;;;;;;;;;;;;;;;;4976949;28;20324;-58
2023/11/23 02:55:14;;;;;;;;;;;;;;;;;;4965180;28;19909;-55
2023/11/23 02:57:42;;;;;;;;;;;;;;;;;;4997136;28;19909;-58
2023/11/23 03:00:08;;;;;;;;;;;;;;;;;;4996881;28;19913;-58
2023/11/23 03:02:34;;;;;;;;;;;;;;;;;;4994733;28;19931;-57
2023/11/23 03:05:00;;;;;;;;;;;;;;;;;;4996819;28;20335;-58
2023/11/23 03:07:26;;;;;;;;;;;;;;;;;;4996450;28;19913;-57
2023/11/23 03:09:52;;;;;;;;;;;;;;;;;;4996204;28;19917;-55
2023/11/23 03:12:18;;;;;;;;;;;;;;;;;;4979034;28;19915;-58
2023/11/23 03:14:44;;;;;;;;;;;;;;;;;;4979617;28;19910;-56
2023/11/23 03:17:10;;;;;;;;;;;;;;;;;;4976749;28;19913;-59
2023/11/23 03:19:36;;;;;;;;;;;;;;;;;;4994327;28;19968;-57
2023/11/23 03:22:02;;;;;;;;;;;;;;;;;;5012570;28;19917;-55
2023/11/23 03:24:30;;;;;;;;;;;;;;;;;;5015976;28;20356;-57
2023/11/23 03:26:56;;;;;;;;;;;;;;;;;;5032548;28;19917;-56
2023/11/23 03:29:22;;;;;;;;;;;;;;;;;;5033591;28;19991;-55
2023/11/23 03:31:48;;;;;;;;;;;;;;;;;;5033323;28;19908;-56
2023/11/23 03:34:14;;;;;;;;;;;;;;;;;;5032685;28;19962;-55
2023/11/23 03:36:41;;;;;;;;;;;;;;;;;;5012798;28;19959;-56
2023/11/23 03:39:07;;;;;;;;;;;;;;;;;;5013759;28;20399;-58
2023/11/23 03:41:33;;;;;;;;;;;;;;;;;;5007409;28;20296;-57
2023/11/23 03:43:59;;;;;;;;;;;;;;;;;;4992748;28;19952;-58
2023/11/23 03:46:26;;;;;;;;;;;;;;;;;;4993925;28;19910;-57
2023/11/23 03:48:52;;;;;;;;;;;;;;;;;;4994132;28;19909;-55
2023/11/23 03:51:18;;;;;;;;;;;;;;;;;;5003646;28;19952;-55
2023/11/23 03:53:44;;;;;;;;;;;;;;;;;;5029738;28;19967;-53
2023/11/23 03:56:10;;;;;;;;;;;;;;;;;;5033007;28;19909;-52
2023/11/23 03:58:36;;;;;;;;;;;;;;;;;;5032847;28;19909;-54
2023/11/23 04:01:02;;;;;;;;;;;;;;;;;;5031260;28;19917;-55
2023/11/23 04:03:28;;;;;;;;;;;;;;;;;;5031225;28;19923;-58
2023/11/23 04:05:54;;;;;;;;;;;;;;;;;;5032231;28;19963;-52
2023/11/23 04:08:22;;;;;;;;;;;;;;;;;;5013430;28;19914;-55
2023/11/23 04:10:48;;;;;;;;;;;;;;;;;;5011866;28;19913;-57
2023/11/23 04:13:14;;;;;;;;;;;;;;;;;;5013016;28;19925;-54
2023/11/23 04:15:40;;;;;;;;;;;;;;;;;;5018992;28;19909;-55
2023/11/23 04:18:06;;;;;;;;;;;;;;;;;;5028284;28;19909;-57
2023/11/23 04:20:35;;;;;;;;;;;;;;;;;;5022582;28;19913;-56
2023/11/23 04:23:01;;;;;;;;;;;;;;;;;;5031367;28;19959;-58
2023/11/23 04:25:28;;;;;;;;;;;;;;;;;;5030644;28;19908;-57
2023/11/23 04:27:54;;;;;;;;;;;;;;;;;;5031172;28;19908;-57
2023/11/23 04:30:20;;;;;;;;;;;;;;;;;;5030841;28;19917;-57
2023/11/23 04:32:46;;;;;;;;;;;;;;;;;;5032348;28;20379;-54
2023/11/23 04:35:12;;;;;;;;;;;;;;;;;;5032588;28;19971;-56
2023/11/23 04:37:39;;;;;;;;;;;;;;;;;;5032101;28;19909;-55
2023/11/23 04:40:06;;;;;;;;;;;;;;;;;;5014442;28;20291;-57
2023/11/23 04:42:32;;;;;;;;;;;;;;;;;;5031894;28;19909;-56
2023/11/23 04:44:58;;;;;;;;;;;;;;;;;;5026202;28;19939;-57
2023/11/23 04:47:24;;;;;;;;;;;;;;;;;;5002245;28;19957;-56
2023/11/23 04:49:50;;;;;;;;;;;;;;;;;;5017533;28;19948;-58
2023/11/23 04:52:16;;;;;;;;;;;;;;;;;;5029080;28;19917;-59
2023/11/23 04:54:42;;;;;;;;;;;;;;;;;;5030047;28;19909;-57
2023/11/23 04:57:08;;;;;;;;;;;;;;;;;;5030860;28;19909;-57
2023/11/23 04:59:34;;;;;;;;;;;;;;;;;;5031911;28;19966;-59
2023/11/23 05:02:00;;;;;;;;;;;;;;;;;;5031997;28;19935;-58
2023/11/23 05:04:26;;;;;;;;;;;;;;;;;;5032330;28;19913;-56
2023/11/23 05:06:55;;;;;;;;;;;;;;;;;;5032234;28;19909;-58
2023/11/23 05:09:21;;;;;;;;;;;;;;;;;;5030664;28;19915;-57
2023/11/23 05:11:48;;;;;;;;;;;;;;;;;;5031899;28;19951;-59
2023/11/23 05:14:14;;;;;;;;;;;;;;;;;;5032170;28;20286;-57
2023/11/23 05:16:40;;;;;;;;;;;;;;;;;;5031050;28;19937;-59
2023/11/23 05:19:06;;;;;;;;;;;;;;;;;;5025045;28;19917;-59
2023/11/23 05:21:32;;;;;;;;;;;;;;;;;;4994649;28;19909;-59
2023/11/23 05:23:58;;;;;;;;;;;;;;;;;;5012194;28;19909;-57
2023/11/23 05:26:25;;;;;;;;;;;;;;;;;;5012170;28;20004;-56
2023/11/23 05:28:51;;;;;;;;;;;;;;;;;;5012247;28;19979;-56
2023/11/23 05:31:17;;;;;;;;;;;;;;;;;;4992016;28;19972;-57
2023/11/23 05:33:43;;;;;;;;;;;;;;;;;;4992739;28;19913;-55
2023/11/23 05:36:11;;;;;;;;;;;;;;;;;;4992613;28;19909;-55
2023/11/23 05:38:37;;;;;;;;;;;;;;;;;;4992393;28;20300;-58
2023/11/23 05:41:03;;;;;;;;;;;;;;;;;;4992466;28;19910;-56
2023/11/23 05:43:29;;;;;;;;;;;;;;;;;;4994958;28;19910;-59
2023/11/23 05:45:56;;;;;;;;;;;;;;;;;;4996418;28;19910;-58
2023/11/23 05:48:22;;;;;;;;;;;;;;;;;;4996297;28;19953;-56
2023/11/23 05:50:48;;;;;;;;;;;;;;;;;;4996140;28;19913;-54
2023/11/23 05:53:14;;;;;;;;;;;;;;;;;;4996187;28;19916;-56
2023/11/23 05:55:40;;;;;;;;;;;;;;;;;;4996215;28;19912;-59
2023/11/23 05:58:06;;;;;;;;;;;;;;;;;;4996349;28;19956;-57
2023/11/23 06:00:32;;;;;;;;;;;;;;;;;;4995813;28;19961;-55
2023/11/23 06:02:58;;;;;;;;;;;;;;;;;;4996015;28;20357;-59
2023/11/23 06:05:25;;;;;;;;;;;;;;;;;;4996066;28;19909;-59
2023/11/23 06:07:51;;;;;;;;;;;;;;;;;;4995869;28;20000;-58
2023/11/23 06:10:17;;;;;;;;;;;;;;;;;;4995926;28;20438;-56
2023/11/23 06:12:44;;;;;;;;;;;;;;;;;;4978631;28;20273;-59
2023/11/23 06:15:10;;;;;;;;;;;;;;;;;;4995841;28;20005;-56
2023/11/23 06:17:36;;;;;;;;;;;;;;;;;;4995826;28;19914;-59
2023/11/23 06:20:04;;;;;;;;;;;;;;;;;;4978560;28;19913;-58
2023/11/23 06:22:30;;;;;;;;;;;;;;;;;;4995521;28;20276;-59
2023/11/23 06:24:56;;;;;;;;;;;;;;;;;;4978311;28;19914;-56
2023/11/23 06:27:23;;;;;;;;;;;;;;;;;;4995634;28;19909;-54
2023/11/23 06:29:49;;;;;;;;;;;;;;;;;;4978107;28;19910;-59
2023/11/23 06:32:16;;;;;;;;;;;;;;;;;;4995525;28;19910;-57
2023/11/23 06:34:43;;;;;;;;;;;;;;;;;;4978136;28;19913;-59
2023/11/23 06:37:09;;;;;;;;;;;;;;;;;;4978342;28;20399;-59
2023/11/23 06:39:35;;;;;;;;;;;;;;;;;;4995320;28;20269;-56
2023/11/23 06:42:01;;;;;;;;;;;;;;;;;;4977747;28;19909;-51
2023/11/23 06:44:28;;;;;;;;;;;;;;;;;;4977965;28;19909;-46
2023/11/23 06:46:54;;;;;;;;;;;;;;;;;;4977885;28;20265;-47
2023/11/23 06:49:20;;;;;;;;;;;;;;;;;;4995154;28;19948;-49
2023/11/23 06:51:46;;;;;;;;;;;;;;;;;;4977442;28;20153;-49
2023/11/23 06:54:12;;;;;;;;;;;;;;;;;;4993991;28;19913;-46
2023/11/23 06:56:38;;;;;;;;;;;;;;;;;;4977860;28;19972;-47
2023/11/23 06:59:04;;;;;;;;;;;;;;;;;;4995012;28;19910;-45
2023/11/23 07:01:30;;;;;;;;;;;;;;;;;;4977503;28;19909;-45
2023/11/23 07:03:56;;;;;;;;;;;;;;;;;;4977567;28;19920;-46
2023/11/23 07:06:24;;;;;;;;;;;;;;;;;;4994750;28;20448;-45
2023/11/23 07:08:50;;;;;;;;;;;;;;;;;;4994718;28;19910;-46
2023/11/23 07:11:19;;;;;;;;;;;;;;;;;;4994795;28;19917;-51
2023/11/23 07:13:45;;;;;;;;;;;;;;;;;;4994815;28;20354;-50
2023/11/23 07:16:12;;;;;;;;;;;;;;;;;;4994827;28;19913;-59
2023/11/23 07:18:38;;;;;;;;;;;;;;;;;;4991484;28;19921;-58
2023/11/23 07:21:04;;;;;;;;;;;;;;;;;;4966089;28;19918;-58
2023/11/23 07:23:30;;;;;;;;;;;;;;;;;;4984306;28;19909;-59
2023/11/23 07:25:56;;;;;;;;;;;;;;;;;;4977067;28;19914;-59
2023/11/23 07:28:25;;;;;;;;;;;;;;;;;;4983177;28;19906;-58
2023/11/23 07:30:57;;;;;;;;;;;;;;;;;;4977496;28;19996;-59
2023/11/23 07:33:25;;;;;;;;;;;;;;;;;;4963936;28;19910;-60
2023/11/23 07:35:51;;;;;;;;;;;;;;;;;;4991636;28;19910;-55
2023/11/23 07:38:17;;;;;;;;;;;;;;;;;;4988445;28;19913;-59
2023/11/23 07:40:43;;;;;;;;;;;;;;;;;;4978309;28;20336;-60
2023/11/23 07:43:09;;;;;;;;;;;;;;;;;;4981144;28;19906;-59
2023/11/23 07:45:37;;;;;;;;;;;;;;;;;;4979395;28;20048;-60
2023/11/23 07:48:08;;;;;;;;;;;;;;;;;;4962512;28;19917;-53
2023/11/23 07:50:34;;;;;;;;;;;;;;;;;;4979264;28;19910;-56
2023/11/23 07:53:01;;;;;;;;;;;;;;;;;;4979690;28;20399;-59
2023/11/23 07:55:27;;;;;;;;;;;;;;;;;;4963020;28;19907;-60
2023/11/23 07:57:53;;;;;;;;;;;;;;;;;;4978658;28;20008;-56
2023/11/23 08:00:19;;;;;;;;;;;;;;;;;;4981277;28;19929;-59
2023/11/23 08:02:45;;;;;;;;;;;;;;;;;;4977507;28;21178;-59
2023/11/23 08:05:11;;;;;;;;;;;;;;;;;;4964601;28;20529;-60
2023/11/23 08:07:37;;;;;;;;;;;;;;;;;;4976958;28;19918;-59
2023/11/23 08:10:12;;;;;;;;;;;;;;;;;;4965384;28;19964;-60
2023/11/23 08:12:39;;;;;;;;;;;;;;;;;;4977010;28;19914;-56
2023/11/23 08:15:06;;;;;;;;;;;;;;;;;;4982635;28;19961;-55
2023/11/23 08:17:32;;;;;;;;;;;;;;;;;;4959367;28;19913;-57
2023/11/23 08:19:58;;;;;;;;;;;;;;;;;;4989072;28;19954;-58
2023/11/23 08:22:24;;;;;;;;;;;;;;;;;;4996019;28;20384;-56
2023/11/23 08:24:50;;;;;;;;;;;;;;;;;;5000913;28;19910;-56
2023/11/23 08:27:16;;;;;;;;;;;;;;;;;;4994913;28;20391;-55
2023/11/23 08:29:43;;;;;;;;;;;;;;;;;;5001791;28;19917;-56
2023/11/23 08:32:09;;;;;;;;;;;;;;;;;;4994562;28;19909;-54
2023/11/23 08:34:37;;;;;;;;;;;;;;;;;;5017172;28;19910;-53
2023/11/23 08:37:03;;;;;;;;;;;;;;;;;;4995047;28;19909;-51
2023/11/23 08:39:29;;;;;;;;;;;;;;;;;;5001314;28;19909;-52
2023/11/23 08:41:55;;;;;;;;;;;;;;;;;;4992529;28;19916;-54
2023/11/23 08:44:21;;;;;;;;;;;;;;;;;;5002061;28;19913;-54
2023/11/23 08:46:47;;;;;;;;;;;;;;;;;;4993633;28;20352;-57
2023/11/23 08:49:15;;;;;;;;;;;;;;;;;;4993026;28;19956;-51
2023/11/23 08:51:41;;;;;;;;;;;;;;;;;;4992876;28;20447;-58
2023/11/23 08:54:08;;;;;;;;;;;;;;;;;;4991880;28;20000;-56
2023/11/23 08:56:34;;;;;;;;;;;;;;;;;;4993136;28;19952;-56
2023/11/23 08:59:00;;;;;;;;;;;;;;;;;;4992746;28;19933;-55
2023/11/23 09:01:26;;;;;;;;;;;;;;;;;;4992759;28;19976;-56
2023/11/23 09:03:52;;;;;;;;;;;;;;;;;;4992957;28;19933;-58
2023/11/23 09:06:18;;;;;;;;;;;;;;;;;;4992925;28;19906;-58
2023/11/23 09:08:44;;;;;;;;;;;;;;;;;;4992807;28;19956;-57
2023/11/23 09:11:11;;;;;;;;;;;;;;;;;;4992611;28;19913;-57
2023/11/23 09:13:37;;;;;;;;;;;;;;;;;;4991580;28;19909;-58
2023/11/23 09:16:03;;;;;;;;;;;;;;;;;;4992774;28;20308;-57
2023/11/23 09:18:30;;;;;;;;;;;;;;;;;;4990200;28;19955;-56
2023/11/23 09:20:56;;;;;;;;;;;;;;;;;;4973168;28;20434;-58
2023/11/23 09:23:22;;;;;;;;;;;;;;;;;;4973297;28;19964;-56
2023/11/23 09:25:48;;;;;;;;;;;;;;;;;;4973282;28;19910;-58
2023/11/23 09:28:14;;;;;;;;;;;;;;;;;;4973160;28;19910;-56
2023/11/23 09:30:41;;;;;;;;;;;;;;;;;;4973250;28;20433;-57
2023/11/23 09:33:10;;;;;;;;;;;;;;;;;;4973218;28;20292;-58
2023/11/23 09:35:37;;;;;;;;;;;;;;;;;;4955899;28;20001;-59
2023/11/23 09:38:04;;;;;;;;;;;;;;;;;;4973198;28;19957;-58
2023/11/23 09:40:30;;;;;;;;;;;;;;;;;;4972919;28;19914;-55
2023/11/23 09:42:56;;;;;;;;;;;;;;;;;;4973291;28;19945;-59
2023/11/23 09:45:24;;;;;;;;;;;;;;;;;;4973074;28;20396;-58
2023/11/23 09:47:50;;;;;;;;;;;;;;;;;;4972961;28;20365;-59
2023/11/23 09:50:16;;;;;;;;;;;;;;;;;;4972892;28;19914;-55
2023/11/23 09:52:42;;;;;;;;;;;;;;;;;;4972845;28;19906;-55
2023/11/23 09:55:08;;;;;;;;;;;;;;;;;;4972842;28;19910;-58
2023/11/23 09:57:35;;;;;;;;;;;;;;;;;;4972887;28;19953;-56
2023/11/23 10:00:05;;;;;;;;;;;;;;;;;;4972960;28;19914;-59
2023/11/23 10:02:32;;;;;;;;;;;;;;;;;;4972631;28;20381;-59
2023/11/23 10:04:58;;;;;;;;;;;;;;;;;;4955463;28;19910;-55
2023/11/23 10:07:26;;;;;;;;;;;;;;;;;;4972912;28;19910;-55
2023/11/23 10:09:52;;;;;;;;;;;;;;;;;;4972704;28;20630;-57
2023/11/23 10:12:19;;;;;;;;;;;;;;;;;;4972808;28;19910;-56
2023/11/23 10:14:45;;;;;;;;;;;;;;;;;;4972775;28;20277;-59
2023/11/23 10:17:11;;;;;;;;;;;;;;;;;;4972687;28;20280;-56
2023/11/23 10:19:37;;;;;;;;;;;;;;;;;;4972512;28;19925;-59
2023/11/23 10:22:03;;;;;;;;;;;;;;;;;;4972436;28;20325;-59
2023/11/23 10:24:29;;;;;;;;;;;;;;;;;;4955385;28;19916;-58
2023/11/23 10:26:55;;;;;;;;;;;;;;;;;;4972673;28;19910;-59
2023/11/23 10:29:28;;;;;;;;;;;;;;;;;;4957352;28;19981;-59
2023/11/23 10:31:54;;;;;;;;;;;;;;;;;;4977106;28;19925;-58
2023/11/23 10:34:20;;;;;;;;;;;;;;;;;;4977119;28;19906;-60
2023/11/23 10:36:46;;;;;;;;;;;;;;;;;;4959609;28;19913;-59
2023/11/23 10:39:12;;;;;;;;;;;;;;;;;;4977047;28;20349;-59
2023/11/23 10:41:38;;;;;;;;;;;;;;;;;;4958604;28;19910;-56
2023/11/23 10:44:04;;;;;;;;;;;;;;;;;;4975897;28;20419;-59
2023/11/23 10:46:30;;;;;;;;;;;;;;;;;;4975801;28;19906;-56
2023/11/23 10:48:57;;;;;;;;;;;;;;;;;;4975742;28;19914;-59
2023/11/23 10:51:23;;;;;;;;;;;;;;;;;;4975434;28;19949;-56
2023/11/23 10:53:49;;;;;;;;;;;;;;;;;;4975880;28;20328;-60
2023/11/23 10:56:16;;;;;;;;;;;;;;;;;;4975610;28;20008;-59
2023/11/23 10:58:42;;;;;;;;;;;;;;;;;;4958127;28;19960;-60
2023/11/23 11:01:09;;;;;;;;;;;;;;;;;;4975280;28;20008;-59
2023/11/23 11:03:35;;;;;;;;;;;;;;;;;;4975494;28;19910;-59
2023/11/23 11:06:01;;;;;;;;;;;;;;;;;;4958009;28;19910;-60
2023/11/23 11:08:30;;;;;;;;;;;;;;;;;;4958036;28;19910;-60
2023/11/23 11:10:57;;;;;;;;;;;;;;;;;;4975212;28;19914;-60
2023/11/23 11:13:23;;;;;;;;;;;;;;;;;;4958012;28;19906;-59
2023/11/23 11:15:50;;;;;;;;;;;;;;;;;;4957994;28;19937;-60
2023/11/23 11:18:16;;;;;;;;;;;;;;;;;;4957688;28;19961;-62
2023/11/23 11:20:44;;;;;;;;;;;;;;;;;;4974905;28;20017;-50
2023/11/23 11:23:10;;;;;;;;;;;;;;;;;;4957827;28;19917;-59
2023/11/23 11:25:36;;;;;;;;;;;;;;;;;;5006946;28;19910;-59
2023/11/23 11:28:03;;;;;;;;;;;;;;;;;;5013565;28;19916;-51
2023/11/23 11:30:29;;;;;;;;;;;;;;;;;;5000031;28;19909;-54
2023/11/23 11:32:55;;;;;;;;;;;;;;;;;;4995821;28;19992;-58
2023/11/23 11:35:21;;;;;;;;;;;;;;;;;;5013745;28;20434;-55
2023/11/23 11:37:47;;;;;;;;;;;;;;;;;;4974205;28;19914;-58
2023/11/23 11:40:13;;;;;;;;;;;;;;;;;;4974238;28;19914;-59
2023/11/23 11:42:40;;;;;;;;;;;;;;;;;;4981999;28;19910;-60
2023/11/23 11:45:06;;;;;;;;;;;;;;;;;;4994206;28;19914;-59
2023/11/23 11:47:33;;;;;;;;;;;;;;;;;;4987948;28;19961;-59
2023/11/23 11:50:00;;;;;;;;;;;;;;;;;;5006803;28;20287;-58
2023/11/23 11:52:26;;;;;;;;;;;;;;;;;;5011527;28;20367;-60
2023/11/23 11:54:52;;;;;;;;;;;;;;;;;;5012004;28;19947;-58
2023/11/23 11:57:19;;;;;;;;;;;;;;;;;;5011685;28;19956;-60
2023/11/23 11:59:45;;;;;;;;;;;;;;;;;;5011730;28;19917;-58
2023/11/23 12:02:11;;;;;;;;;;;;;;;;;;5011459;28;19913;-58
2023/11/23 12:04:39;;;;;;;;;;;;;;;;;;5009219;28;19966;-58
2023/11/23 12:07:05;;;;;;;;;;;;;;;;;;4993885;28;19913;-60
2023/11/23 12:09:32;;;;;;;;;;;;;;;;;;5007996;28;19955;-56
2023/11/23 12:11:58;;;;;;;;;;;;;;;;;;5011362;28;19914;-60
2023/11/23 12:14:25;;;;;;;;;;;;;;;;;;4994137;28;20008;-60
2023/11/23 12:16:51;;;;;;;;;;;;;;;;;;5011190;28;19909;-60
2023/11/23 12:19:19;;;;;;;;;;;;;;;;;;5010841;28;19918;-60
2023/11/23 12:21:45;;;;;;;;;;;;;;;;;;5011907;28;20376;-62
2023/11/23 12:24:11;;;;;;;;;;;;;;;;;;5011225;28;20376;-52
2023/11/23 12:26:38;;;;;;;;;;;;;;;;;;5011566;28;20419;-62
2023/11/23 12:29:04;;;;;;;;;;;;;;;;;;5011175;28;19913;-59
2023/11/23 12:31:30;;;;;;;;;;;;;;;;;;5003471;28;19921;-61
2023/11/23 12:33:56;;;;;;;;;;;;;;;;;;5006405;28;19914;-61
2023/11/23 12:36:22;;;;;;;;;;;;;;;;;;5011362;28;19913;-62
2023/11/23 12:38:49;;;;;;;;;;;;;;;;;;4993661;28;19920;-61
2023/11/23 12:41:15;;;;;;;;;;;;;;;;;;5010829;28;19917;-61
2023/11/23 12:43:41;;;;;;;;;;;;;;;;;;5010954;28;19913;-59
2023/11/23 12:46:07;;;;;;;;;;;;;;;;;;5004367;28;19996;-58
2023/11/23 12:48:33;;;;;;;;;;;;;;;;;;4984752;28;20380;-60
2023/11/23 12:51:00;;;;;;;;;;;;;;;;;;4994228;28;19909;-61
2023/11/23 12:53:26;;;;;;;;;;;;;;;;;;5011644;28;19915;-60
2023/11/23 12:55:52;;;;;;;;;;;;;;;;;;5012406;28;19963;-60
2023/11/23 12:58:19;;;;;;;;;;;;;;;;;;5011659;28;20288;-61
2023/11/23 13:00:47;;;;;;;;;;;;;;;;;;4994103;28;19913;-61
2023/11/23 13:03:13;;;;;;;;;;;;;;;;;;4994873;28;19909;-60
2023/11/23 13:05:41;;;;;;;;;;;;;;;;;;5012235;28;20466;-60
2023/11/23 13:08:08;;;;;;;;;;;;;;;;;;5012435;28;20004;-60
2023/11/23 13:10:34;;;;;;;;;;;;;;;;;;5011818;28;20446;-59
2023/11/23 13:13:00;;;;;;;;;;;;;;;;;;4994461;28;19967;-59
2023/11/23 13:15:27;;;;;;;;;;;;;;;;;;4978210;28;19918;-59
2023/11/23 13:17:53;;;;;;;;;;;;;;;;;;5012422;28;19976;-61
2023/11/23 13:20:20;;;;;;;;;;;;;;;;;;5012149;28;20354;-59
2023/11/23 13:22:46;;;;;;;;;;;;;;;;;;5011910;28;19956;-62
2023/11/23 13:25:14;;;;;;;;;;;;;;;;;;5012139;28;19924;-60
2023/11/23 13:27:41;;;;;;;;;;;;;;;;;;5012143;28;20287;-61
2023/11/23 13:30:08;;;;;;;;;;;;;;;;;;5011976;28;19972;-61
2023/11/23 13:32:34;;;;;;;;;;;;;;;;;;5011877;28;19915;-61
2023/11/23 13:35:00;;;;;;;;;;;;;;;;;;5011555;28;20012;-61
2023/11/23 13:37:27;;;;;;;;;;;;;;;;;;5009588;28;19910;-59
2023/11/23 13:39:53;;;;;;;;;;;;;;;;;;5012109;28;19936;-60
2023/11/23 13:42:20;;;;;;;;;;;;;;;;;;5011697;28;19935;-61
2023/11/23 13:44:46;;;;;;;;;;;;;;;;;;5012180;28;20000;-59
2023/11/23 13:47:15;;;;;;;;;;;;;;;;;;5012115;28;19916;-60
2023/11/23 13:49:42;;;;;;;;;;;;;;;;;;5011379;28;20033;-59
2023/11/23 13:52:10;;;;;;;;;;;;;;;;;;5011436;28;20031;-60
2023/11/23 13:54:36;;;;;;;;;;;;;;;;;;5011390;28;19910;-60
2023/11/23 13:57:02;;;;;;;;;;;;;;;;;;4994376;28;20525;-59
2023/11/23 13:59:28;;;;;;;;;;;;;;;;;;5011361;28;20299;-60
2023/11/23 14:01:54;;;;;;;;;;;;;;;;;;5011364;28;20372;-58
2023/11/23 14:04:20;;;;;;;;;;;;;;;;;;5013488;28;20060;-58
2023/11/23 14:06:47;;;;;;;;;;;;;;;;;;4997883;28;19909;-60
2023/11/23 14:09:18;;;;;;;;;;;;;;;;;;5015434;28;19909;-60
2023/11/23 14:11:44;;;;;;;;;;;;;;;;;;5015354;28;19913;-58
2023/11/23 14:14:10;;;;;;;;;;;;;;;;;;5017340;28;19913;-60
2023/11/23 14:16:36;;;;;;;;;;;;;;;;;;5015801;28;19909;-51
2023/11/23 14:19:05;;;;;;;;;;;;;;;;;;5015420;28;20368;-52
2023/11/23 14:21:31;;;;;;;;;;;;;;;;;;5015174;28;19909;-58
2023/11/23 14:23:58;;;;;;;;;;;;;;;;;;5015232;28;19918;-60
2023/11/23 14:26:24;;;;;;;;;;;;;;;;;;5015346;28;19957;-59
2023/11/23 14:28:50;;;;;;;;;;;;;;;;;;4997932;28;19963;-56
2023/11/23 14:31:18;;;;;;;;;;;;;;;;;;5015057;28;19909;-59
2023/11/23 14:33:44;;;;;;;;;;;;;;;;;;5015136;28;19909;-60
2023/11/23 14:36:12;;;;;;;;;;;;;;;;;;5015100;28;20348;-58
2023/11/23 14:38:38;;;;;;;;;;;;;;;;;;5015044;28;19912;-54
2023/11/23 14:41:04;;;;;;;;;;;;;;;;;;5015063;28;19920;-55
2023/11/23 14:43:30;;;;;;;;;;;;;;;;;;5014986;28;19996;-58
2023/11/23 14:45:58;;;;;;;;;;;;;;;;;;5014373;28;19913;-57
2023/11/23 14:48:25;;;;;;;;;;;;;;;;;;4996324;28;20390;-56
2023/11/23 14:50:51;;;;;;;;;;;;;;;;;;5012474;28;19916;-56
2023/11/23 14:53:18;;;;;;;;;;;;;;;;;;5014564;28;19913;-55
2023/11/23 14:55:45;;;;;;;;;;;;;;;;;;5014499;28;20044;-53
2023/11/23 14:58:13;;;;;;;;;;;;;;;;;;5013416;28;19909;-60
2023/11/23 15:00:40;;;;;;;;;;;;;;;;;;5014045;28;20384;-56
2023/11/23 15:03:07;;;;;;;;;;;;;;;;;;5013147;28;19955;-57
2023/11/23 15:05:33;;;;;;;;;;;;;;;;;;5010506;28;20008;-60
2023/11/23 15:07:59;;;;;;;;;;;;;;;;;;4984563;28;19956;-59
2023/11/23 15:10:26;;;;;;;;;;;;;;;;;;4994796;28;20452;-58
2023/11/23 15:12:53;;;;;;;;;;;;;;;;;;4977239;28;19945;-59
2023/11/23 15:15:19;;;;;;;;;;;;;;;;;;4974476;28;20296;-57
2023/11/23 15:17:46;;;;;;;;;;;;;;;;;;4975339;28;19913;-54
2023/11/23 15:20:12;;;;;;;;;;;;;;;;;;4974763;28;19933;-58
2023/11/23 15:22:38;;;;;;;;;;;;;;;;;;4957547;28;19912;-57
2023/11/23 15:25:04;;;;;;;;;;;;;;;;;;4992678;28;19910;-59
2023/11/23 15:27:32;;;;;;;;;;;;;;;;;;4975257;28;20376;-57
2023/11/23 15:29:58;;;;;;;;;;;;;;;;;;4992083;28;20009;-56
2023/11/23 15:32:24;;;;;;;;;;;;;;;;;;4993700;28;19917;-58
2023/11/23 15:34:50;;;;;;;;;;;;;;;;;;4976613;28;20292;-59
2023/11/23 15:37:16;;;;;;;;;;;;;;;;;;4979976;28;19912;-59
2023/11/23 15:39:42;;;;;;;;;;;;;;;;;;5013641;28;19952;-58
2023/11/23 15:42:10;;;;;;;;;;;;;;;;;;4994953;28;19961;-60
2023/11/23 15:44:37;;;;;;;;;;;;;;;;;;4976956;28;19914;-58
2023/11/23 15:47:04;;;;;;;;;;;;;;;;;;4961430;28;19949;-60
2023/11/23 15:49:30;;;;;;;;;;;;;;;;;;4993935;28;20008;-58
2023/11/23 15:51:56;;;;;;;;;;;;;;;;;;4993986;28;19910;-61
2023/11/23 15:54:24;;;;;;;;;;;;;;;;;;4993985;28;19916;-59
2023/11/23 15:56:50;;;;;;;;;;;;;;;;;;4994066;28;19917;-59
2023/11/23 15:59:17;;;;;;;;;;;;;;;;;;4989109;28;19929;-61
2023/11/23 16:01:43;;;;;;;;;;;;;;;;;;4976104;28;19917;-61
2023/11/23 16:04:12;;;;;;;;;;;;;;;;;;4959437;28;19972;-61
2023/11/23 16:06:38;;;;;;;;;;;;;;;;;;4976430;28;19910;-61
2023/11/23 16:09:08;;;;;;;;;;;;;;;;;;4975969;28;19906;-61
2023/11/23 16:11:37;;;;;;;;;;;;;;;;;;4974086;28;20360;-61
2023/11/23 16:14:03;;;;;;;;;;;;;;;;;;4974238;28;19910;-61
2023/11/23 16:16:30;;;;;;;;;;;;;;;;;;4974034;28;19917;-60
2023/11/23 16:18:57;;;;;;;;;;;;;;;;;;4973919;28;19921;-60
2023/11/23 16:21:23;;;;;;;;;;;;;;;;;;4973536;28;19921;-61
2023/11/23 16:23:49;;;;;;;;;;;;;;;;;;4974053;28;19964;-60
2023/11/23 16:26:16;;;;;;;;;;;;;;;;;;4972528;28;20216;-59
2023/11/23 16:28:42;;;;;;;;;;;;;;;;;;4973606;28;19913;-60
2023/11/23 16:31:08;;;;;;;;;;;;;;;;;;4973728;28;20027;-61
2023/11/23 16:33:34;;;;;;;;;;;;;;;;;;4979585;28;19963;-58
2023/11/23 16:36:00;;;;;;;;;;;;;;;;;;4979695;28;19909;-61
2023/11/23 16:38:27;;;;;;;;;;;;;;;;;;4974356;28;20071;-61
2023/11/23 16:40:53;;;;;;;;;;;;;;;;;;4975653;28;19913;-61